sensor_id;sensor_type;location;lat;lon;timestamp;P1;durP1;ratioP1;P2;durP2;ratioP2
42478;SDS011;28110;47.080;9.476;2022-09-09T00:00:38;3.17;;;1.05;;
42478;SDS011;28110;47.080;9.476;2022-09-09T00:03:16;2.22;;;1.27;;
42478;SDS011;28110;47.080;9.476;2022-09-09T00:05:56;3.80;;;1.10;;
42478;SDS011;28110;47.080;9.476;2022-09-09T00:08:45;2.78;;;1.00;;
42478;SDS011;28110;47.080;9.476;2022-09-09T00:11:21;3.07;;;1.10;;
42478;SDS011;28110;47.080;9.476;2022-09-09T00:13:53;3.22;;;1.05;;
42478;SDS011;28110;47.080;9.476;2022-09-09T00:21:18;2.30;;;1.08;;
42478;SDS011;28110;47.080;9.476;2022-09-09T00:23:47;2.77;;;0.90;;
42478;SDS011;28110;47.080;9.476;2022-09-09T00:26:35;1.55;;;1.15;;
42478;SDS011;28110;47.080;9.476;2022-09-09T00:31:32;3.00;;;1.13;;
42478;SDS011;28110;47.080;9.476;2022-09-09T00:33:59;5.65;;;1.20;;
42478;SDS011;28110;47.080;9.476;2022-09-09T00:36:37;3.95;;;1.20;;
42478;SDS011;28110;47.080;9.476;2022-09-09T00:39:04;1.83;;;0.98;;
42478;SDS011;28110;47.080;9.476;2022-09-09T00:50:00;2.45;;;1.00;;
42478;SDS011;28110;47.080;9.476;2022-09-09T00:52:43;2.55;;;0.80;;
42478;SDS011;28110;47.080;9.476;2022-09-09T00:55:18;3.30;;;1.10;;
42478;SDS011;28110;47.080;9.476;2022-09-09T00:58:06;2.65;;;0.93;;
42478;SDS011;28110;47.080;9.476;2022-09-09T01:03:39;2.60;;;0.93;;
42478;SDS011;28110;47.080;9.476;2022-09-09T01:14:29;3.30;;;1.05;;
42478;SDS011;28110;47.080;9.476;2022-09-09T01:17:01;1.38;;;1.02;;
42478;SDS011;28110;47.080;9.476;2022-09-09T01:22:36;2.30;;;0.80;;
42478;SDS011;28110;47.080;9.476;2022-09-09T01:25:29;1.92;;;0.70;;
42478;SDS011;28110;47.080;9.476;2022-09-09T01:28:16;4.63;;;1.02;;
42478;SDS011;28110;47.080;9.476;2022-09-09T01:30:46;3.83;;;1.00;;
42478;SDS011;28110;47.080;9.476;2022-09-09T01:33:13;5.50;;;0.98;;
42478;SDS011;28110;47.080;9.476;2022-09-09T01:38:09;2.53;;;1.10;;
42478;SDS011;28110;47.080;9.476;2022-09-09T01:40:35;1.20;;;0.85;;
42478;SDS011;28110;47.080;9.476;2022-09-09T01:43:01;6.53;;;1.02;;
42478;SDS011;28110;47.080;9.476;2022-09-09T01:45:27;1.67;;;0.70;;
42478;SDS011;28110;47.080;9.476;2022-09-09T01:47:53;4.03;;;1.15;;
42478;SDS011;28110;47.080;9.476;2022-09-09T01:50:19;2.10;;;1.00;;
42478;SDS011;28110;47.080;9.476;2022-09-09T01:52:46;3.03;;;1.00;;
42478;SDS011;28110;47.080;9.476;2022-09-09T01:55:16;2.05;;;0.80;;
42478;SDS011;28110;47.080;9.476;2022-09-09T02:01:00;2.38;;;0.93;;
42478;SDS011;28110;47.080;9.476;2022-09-09T02:03:33;1.50;;;0.73;;
42478;SDS011;28110;47.080;9.476;2022-09-09T02:09:04;1.92;;;0.80;;
42478;SDS011;28110;47.080;9.476;2022-09-09T02:11:31;2.42;;;1.00;;
42478;SDS011;28110;47.080;9.476;2022-09-09T02:14:17;3.30;;;1.08;;
42478;SDS011;28110;47.080;9.476;2022-09-09T02:16:54;4.00;;;0.70;;
42478;SDS011;28110;47.080;9.476;2022-09-09T02:19:34;1.40;;;0.90;;
42478;SDS011;28110;47.080;9.476;2022-09-09T02:22:04;2.97;;;0.82;;
42478;SDS011;28110;47.080;9.476;2022-09-09T02:24:31;0.88;;;0.88;;
42478;SDS011;28110;47.080;9.476;2022-09-09T02:26:59;3.30;;;0.80;;
42478;SDS011;28110;47.080;9.476;2022-09-09T02:29:31;2.70;;;0.80;;
42478;SDS011;28110;47.080;9.476;2022-09-09T02:32:01;3.65;;;0.90;;
42478;SDS011;28110;47.080;9.476;2022-09-09T02:34:31;2.42;;;0.80;;
42478;SDS011;28110;47.080;9.476;2022-09-09T02:37:01;3.28;;;0.98;;
42478;SDS011;28110;47.080;9.476;2022-09-09T02:39:31;1.95;;;0.85;;
42478;SDS011;28110;47.080;9.476;2022-09-09T02:41:57;8.07;;;1.43;;
42478;SDS011;28110;47.080;9.476;2022-09-09T02:44:22;2.03;;;1.20;;
42478;SDS011;28110;47.080;9.476;2022-09-09T02:52:41;5.80;;;1.10;;
42478;SDS011;28110;47.080;9.476;2022-09-09T02:55:23;2.90;;;0.90;;
42478;SDS011;28110;47.080;9.476;2022-09-09T02:57:57;2.45;;;1.00;;
42478;SDS011;28110;47.080;9.476;2022-09-09T03:00:25;1.42;;;0.90;;
42478;SDS011;28110;47.080;9.476;2022-09-09T03:02:52;2.17;;;0.90;;
42478;SDS011;28110;47.080;9.476;2022-09-09T03:05:19;1.67;;;0.70;;
42478;SDS011;28110;47.080;9.476;2022-09-09T03:07:45;3.20;;;0.90;;
42478;SDS011;28110;47.080;9.476;2022-09-09T03:10:11;0.93;;;0.80;;
42478;SDS011;28110;47.080;9.476;2022-09-09T03:12:36;0.90;;;0.80;;
42478;SDS011;28110;47.080;9.476;2022-09-09T03:15:03;1.92;;;0.80;;
42478;SDS011;28110;47.080;9.476;2022-09-09T03:17:29;3.85;;;1.00;;
42478;SDS011;28110;47.080;9.476;2022-09-09T03:19:55;2.47;;;1.10;;
42478;SDS011;28110;47.080;9.476;2022-09-09T03:22:22;3.33;;;0.98;;
42478;SDS011;28110;47.080;9.476;2022-09-09T03:24:48;4.43;;;1.17;;
42478;SDS011;28110;47.080;9.476;2022-09-09T03:27:14;3.67;;;1.08;;
42478;SDS011;28110;47.080;9.476;2022-09-09T03:29:39;2.80;;;0.83;;
42478;SDS011;28110;47.080;9.476;2022-09-09T03:32:05;4.22;;;1.13;;
42478;SDS011;28110;47.080;9.476;2022-09-09T03:34:31;3.10;;;0.90;;
42478;SDS011;28110;47.080;9.476;2022-09-09T03:36:56;1.77;;;0.93;;
42478;SDS011;28110;47.080;9.476;2022-09-09T03:39:22;2.60;;;0.80;;
42478;SDS011;28110;47.080;9.476;2022-09-09T03:41:48;1.50;;;0.85;;
42478;SDS011;28110;47.080;9.476;2022-09-09T03:44:13;2.97;;;0.70;;
42478;SDS011;28110;47.080;9.476;2022-09-09T03:46:39;4.50;;;0.98;;
42478;SDS011;28110;47.080;9.476;2022-09-09T03:49:05;4.73;;;1.20;;
42478;SDS011;28110;47.080;9.476;2022-09-09T03:51:30;6.40;;;1.20;;
42478;SDS011;28110;47.080;9.476;2022-09-09T03:53:56;2.75;;;1.02;;
42478;SDS011;28110;47.080;9.476;2022-09-09T03:56:23;1.75;;;0.90;;
42478;SDS011;28110;47.080;9.476;2022-09-09T03:58:49;3.07;;;1.07;;
42478;SDS011;28110;47.080;9.476;2022-09-09T04:01:14;1.90;;;1.00;;
42478;SDS011;28110;47.080;9.476;2022-09-09T04:03:42;6.28;;;1.13;;
42478;SDS011;28110;47.080;9.476;2022-09-09T04:06:10;2.27;;;1.27;;
42478;SDS011;28110;47.080;9.476;2022-09-09T04:08:38;7.82;;;1.30;;
42478;SDS011;28110;47.080;9.476;2022-09-09T04:11:04;2.75;;;1.10;;
42478;SDS011;28110;47.080;9.476;2022-09-09T04:13:31;2.17;;;1.27;;
42478;SDS011;28110;47.080;9.476;2022-09-09T04:15:59;6.43;;;1.40;;
42478;SDS011;28110;47.080;9.476;2022-09-09T04:18:25;3.97;;;1.20;;
42478;SDS011;28110;47.080;9.476;2022-09-09T04:20:53;5.25;;;1.27;;
42478;SDS011;28110;47.080;9.476;2022-09-09T04:23:19;2.42;;;1.30;;
42478;SDS011;28110;47.080;9.476;2022-09-09T04:25:45;3.80;;;1.33;;
42478;SDS011;28110;47.080;9.476;2022-09-09T04:28:16;2.85;;;1.50;;
42478;SDS011;28110;47.080;9.476;2022-09-09T04:30:43;3.30;;;1.08;;
42478;SDS011;28110;47.080;9.476;2022-09-09T04:33:09;3.58;;;1.15;;
42478;SDS011;28110;47.080;9.476;2022-09-09T04:35:36;4.13;;;1.10;;
42478;SDS011;28110;47.080;9.476;2022-09-09T04:38:03;5.90;;;1.20;;
42478;SDS011;28110;47.080;9.476;2022-09-09T04:40:32;2.92;;;1.15;;
42478;SDS011;28110;47.080;9.476;2022-09-09T04:42:58;2.03;;;1.45;;
42478;SDS011;28110;47.080;9.476;2022-09-09T04:45:24;4.53;;;1.50;;
42478;SDS011;28110;47.080;9.476;2022-09-09T04:47:51;2.80;;;1.60;;
42478;SDS011;28110;47.080;9.476;2022-09-09T04:50:17;3.17;;;1.15;;
42478;SDS011;28110;47.080;9.476;2022-09-09T04:52:43;3.85;;;1.50;;
42478;SDS011;28110;47.080;9.476;2022-09-09T04:55:09;5.17;;;2.00;;
42478;SDS011;28110;47.080;9.476;2022-09-09T04:57:34;2.58;;;1.30;;
42478;SDS011;28110;47.080;9.476;2022-09-09T05:00:00;2.63;;;1.40;;
42478;SDS011;28110;47.080;9.476;2022-09-09T05:02:27;3.70;;;1.15;;
42478;SDS011;28110;47.080;9.476;2022-09-09T05:04:52;3.20;;;1.40;;
42478;SDS011;28110;47.080;9.476;2022-09-09T05:07:18;2.85;;;1.27;;
42478;SDS011;28110;47.080;9.476;2022-09-09T05:09:44;10.30;;;1.83;;
42478;SDS011;28110;47.080;9.476;2022-09-09T05:12:10;3.13;;;1.23;;
42478;SDS011;28110;47.080;9.476;2022-09-09T05:14:36;1.70;;;1.20;;
42478;SDS011;28110;47.080;9.476;2022-09-09T05:17:02;4.65;;;1.30;;
42478;SDS011;28110;47.080;9.476;2022-09-09T05:19:28;3.50;;;1.00;;
42478;SDS011;28110;47.080;9.476;2022-09-09T05:21:56;7.75;;;1.20;;
42478;SDS011;28110;47.080;9.476;2022-09-09T05:24:21;3.35;;;1.17;;
42478;SDS011;28110;47.080;9.476;2022-09-09T05:26:50;6.88;;;1.38;;
42478;SDS011;28110;47.080;9.476;2022-09-09T05:29:15;7.57;;;1.50;;
42478;SDS011;28110;47.080;9.476;2022-09-09T05:31:43;3.72;;;1.40;;
42478;SDS011;28110;47.080;9.476;2022-09-09T05:34:09;7.07;;;1.40;;
42478;SDS011;28110;47.080;9.476;2022-09-09T05:36:35;3.25;;;1.00;;
42478;SDS011;28110;47.080;9.476;2022-09-09T05:39:00;2.60;;;1.47;;
42478;SDS011;28110;47.080;9.476;2022-09-09T05:41:26;6.53;;;1.40;;
42478;SDS011;28110;47.080;9.476;2022-09-09T05:43:53;3.08;;;1.38;;
42478;SDS011;28110;47.080;9.476;2022-09-09T05:46:20;4.10;;;1.30;;
42478;SDS011;28110;47.080;9.476;2022-09-09T05:48:47;4.27;;;1.60;;
42478;SDS011;28110;47.080;9.476;2022-09-09T05:51:16;3.97;;;1.30;;
42478;SDS011;28110;47.080;9.476;2022-09-09T05:53:45;1.50;;;0.90;;
42478;SDS011;28110;47.080;9.476;2022-09-09T05:56:15;7.95;;;1.48;;
42478;SDS011;28110;47.080;9.476;2022-09-09T05:58:52;5.00;;;1.30;;
42478;SDS011;28110;47.080;9.476;2022-09-09T06:01:22;4.70;;;1.60;;
42478;SDS011;28110;47.080;9.476;2022-09-09T06:03:50;5.60;;;1.30;;
42478;SDS011;28110;47.080;9.476;2022-09-09T06:06:18;2.75;;;1.35;;
42478;SDS011;28110;47.080;9.476;2022-09-09T06:08:46;6.05;;;1.50;;
42478;SDS011;28110;47.080;9.476;2022-09-09T06:11:13;4.60;;;1.33;;
42478;SDS011;28110;47.080;9.476;2022-09-09T06:13:41;1.55;;;1.10;;
42478;SDS011;28110;47.080;9.476;2022-09-09T06:16:10;3.05;;;1.15;;
42478;SDS011;28110;47.080;9.476;2022-09-09T06:18:40;3.05;;;1.30;;
42478;SDS011;28110;47.080;9.476;2022-09-09T06:21:09;2.85;;;1.20;;
42478;SDS011;28110;47.080;9.476;2022-09-09T06:23:40;3.92;;;1.52;;
42478;SDS011;28110;47.080;9.476;2022-09-09T06:26:06;4.50;;;1.40;;
42478;SDS011;28110;47.080;9.476;2022-09-09T06:28:35;9.85;;;1.60;;
42478;SDS011;28110;47.080;9.476;2022-09-09T06:31:02;4.95;;;1.45;;
42478;SDS011;28110;47.080;9.476;2022-09-09T06:33:33;3.43;;;1.40;;
42478;SDS011;28110;47.080;9.476;2022-09-09T06:36:00;2.97;;;1.30;;
42478;SDS011;28110;47.080;9.476;2022-09-09T06:38:27;5.78;;;1.27;;
42478;SDS011;28110;47.080;9.476;2022-09-09T06:40:56;9.30;;;1.58;;
42478;SDS011;28110;47.080;9.476;2022-09-09T06:43:23;4.05;;;1.50;;
42478;SDS011;28110;47.080;9.476;2022-09-09T06:45:54;3.67;;;1.30;;
42478;SDS011;28110;47.080;9.476;2022-09-09T06:48:21;3.55;;;1.30;;
42478;SDS011;28110;47.080;9.476;2022-09-09T06:50:46;4.53;;;1.45;;
42478;SDS011;28110;47.080;9.476;2022-09-09T06:53:12;3.23;;;1.40;;
42478;SDS011;28110;47.080;9.476;2022-09-09T06:55:41;4.28;;;1.20;;
42478;SDS011;28110;47.080;9.476;2022-09-09T06:58:09;2.25;;;1.20;;
42478;SDS011;28110;47.080;9.476;2022-09-09T07:00:34;5.03;;;1.30;;
42478;SDS011;28110;47.080;9.476;2022-09-09T07:03:02;5.85;;;1.40;;
42478;SDS011;28110;47.080;9.476;2022-09-09T07:05:28;4.47;;;1.20;;
42478;SDS011;28110;47.080;9.476;2022-09-09T07:07:53;5.33;;;1.43;;
42478;SDS011;28110;47.080;9.476;2022-09-09T07:10:19;7.38;;;1.60;;
42478;SDS011;28110;47.080;9.476;2022-09-09T07:12:44;3.87;;;1.37;;
42478;SDS011;28110;47.080;9.476;2022-09-09T07:15:16;6.15;;;1.50;;
42478;SDS011;28110;47.080;9.476;2022-09-09T07:17:43;4.47;;;1.50;;
42478;SDS011;28110;47.080;9.476;2022-09-09T07:20:09;6.03;;;1.87;;
42478;SDS011;28110;47.080;9.476;2022-09-09T07:22:35;4.80;;;1.30;;
42478;SDS011;28110;47.080;9.476;2022-09-09T07:25:00;6.33;;;2.00;;
42478;SDS011;28110;47.080;9.476;2022-09-09T07:27:27;4.85;;;1.90;;
42478;SDS011;28110;47.080;9.476;2022-09-09T07:29:52;8.93;;;1.70;;
42478;SDS011;28110;47.080;9.476;2022-09-09T07:32:19;4.00;;;1.85;;
42478;SDS011;28110;47.080;9.476;2022-09-09T07:34:45;6.32;;;1.63;;
42478;SDS011;28110;47.080;9.476;2022-09-09T07:37:12;7.85;;;1.60;;
42478;SDS011;28110;47.080;9.476;2022-09-09T07:39:38;3.50;;;1.27;;
42478;SDS011;28110;47.080;9.476;2022-09-09T07:42:05;3.97;;;1.47;;
42478;SDS011;28110;47.080;9.476;2022-09-09T07:44:30;2.10;;;1.30;;
42478;SDS011;28110;47.080;9.476;2022-09-09T07:46:59;4.13;;;1.50;;
42478;SDS011;28110;47.080;9.476;2022-09-09T07:49:26;3.03;;;1.65;;
42478;SDS011;28110;47.080;9.476;2022-09-09T07:51:52;10.80;;;2.00;;
42478;SDS011;28110;47.080;9.476;2022-09-09T07:54:18;3.90;;;1.38;;
42478;SDS011;28110;47.080;9.476;2022-09-09T07:56:45;4.78;;;1.38;;
42478;SDS011;28110;47.080;9.476;2022-09-09T07:59:12;3.42;;;1.48;;
42478;SDS011;28110;47.080;9.476;2022-09-09T08:01:43;2.93;;;1.20;;
42478;SDS011;28110;47.080;9.476;2022-09-09T08:04:14;2.85;;;1.10;;
42478;SDS011;28110;47.080;9.476;2022-09-09T08:06:52;3.20;;;1.23;;
42478;SDS011;28110;47.080;9.476;2022-09-09T08:09:22;5.50;;;1.55;;
42478;SDS011;28110;47.080;9.476;2022-09-09T08:11:53;2.78;;;1.13;;
42478;SDS011;28110;47.080;9.476;2022-09-09T08:14:19;3.83;;;1.20;;
42478;SDS011;28110;47.080;9.476;2022-09-09T08:16:46;6.03;;;1.50;;
42478;SDS011;28110;47.080;9.476;2022-09-09T08:19:13;2.60;;;1.63;;
42478;SDS011;28110;47.080;9.476;2022-09-09T08:21:40;4.10;;;1.30;;
42478;SDS011;28110;47.080;9.476;2022-09-09T08:24:06;4.07;;;1.60;;
42478;SDS011;28110;47.080;9.476;2022-09-09T08:26:34;3.03;;;1.35;;
42478;SDS011;28110;47.080;9.476;2022-09-09T08:29:02;8.15;;;2.03;;
42478;SDS011;28110;47.080;9.476;2022-09-09T08:31:31;2.50;;;1.43;;
42478;SDS011;28110;47.080;9.476;2022-09-09T08:34:02;7.78;;;1.70;;
42478;SDS011;28110;47.080;9.476;2022-09-09T08:36:29;5.57;;;1.80;;
42478;SDS011;28110;47.080;9.476;2022-09-09T08:38:58;6.53;;;1.27;;
42478;SDS011;28110;47.080;9.476;2022-09-09T08:55:33;5.53;;;1.55;;
42478;SDS011;28110;47.080;9.476;2022-09-09T08:58:21;1.93;;;1.30;;
42478;SDS011;28110;47.080;9.476;2022-09-09T09:09:06;4.03;;;1.30;;
42478;SDS011;28110;47.080;9.476;2022-09-09T09:11:46;3.53;;;0.87;;
42478;SDS011;28110;47.080;9.476;2022-09-09T09:14:21;2.47;;;1.10;;
42478;SDS011;28110;47.080;9.476;2022-09-09T09:16:51;2.13;;;0.85;;
42478;SDS011;28110;47.080;9.476;2022-09-09T09:19:38;1.75;;;1.00;;
42478;SDS011;28110;47.080;9.476;2022-09-09T09:27:35;7.97;;;1.00;;
42478;SDS011;28110;47.080;9.476;2022-09-09T09:35:42;2.53;;;0.57;;
42478;SDS011;28110;47.080;9.476;2022-09-09T09:38:12;3.77;;;0.87;;
42478;SDS011;28110;47.080;9.476;2022-09-09T09:40:52;2.35;;;0.70;;
42478;SDS011;28110;47.080;9.476;2022-09-09T09:43:29;0.50;;;0.50;;
42478;SDS011;28110;47.080;9.476;2022-09-09T09:45:59;1.77;;;0.60;;
42478;SDS011;28110;47.080;9.476;2022-09-09T09:48:28;2.50;;;0.60;;
42478;SDS011;28110;47.080;9.476;2022-09-09T09:50:59;1.67;;;0.50;;
42478;SDS011;28110;47.080;9.476;2022-09-09T09:53:28;0.90;;;0.70;;
42478;SDS011;28110;47.080;9.476;2022-09-09T09:58:27;6.03;;;1.38;;
42478;SDS011;28110;47.080;9.476;2022-09-09T10:00:56;4.47;;;1.10;;
42478;SDS011;28110;47.080;9.476;2022-09-09T10:05:54;1.67;;;0.55;;
42478;SDS011;28110;47.080;9.476;2022-09-09T10:08:21;3.08;;;0.80;;
42478;SDS011;28110;47.080;9.476;2022-09-09T10:13:21;1.33;;;0.60;;
42478;SDS011;28110;47.080;9.476;2022-09-09T10:16:02;1.40;;;0.70;;
42478;SDS011;28110;47.080;9.476;2022-09-09T10:18:42;3.22;;;0.80;;
42478;SDS011;28110;47.080;9.476;2022-09-09T10:21:40;2.78;;;1.15;;
42478;SDS011;28110;47.080;9.476;2022-09-09T10:34:52;1.98;;;0.70;;
42478;SDS011;28110;47.080;9.476;2022-09-09T10:40:26;3.15;;;1.00;;
42478;SDS011;28110;47.080;9.476;2022-09-09T10:42:55;3.15;;;0.95;;
42478;SDS011;28110;47.080;9.476;2022-09-09T10:45:49;1.23;;;0.82;;
42478;SDS011;28110;47.080;9.476;2022-09-09T10:48:37;3.28;;;0.95;;
42478;SDS011;28110;47.080;9.476;2022-09-09T10:54:04;1.00;;;0.90;;
42478;SDS011;28110;47.080;9.476;2022-09-09T10:56:35;2.00;;;1.20;;
42478;SDS011;28110;47.080;9.476;2022-09-09T11:04:21;1.67;;;0.90;;
42478;SDS011;28110;47.080;9.476;2022-09-09T11:06:52;2.65;;;1.00;;
42478;SDS011;28110;47.080;9.476;2022-09-09T11:09:21;0.90;;;0.70;;
42478;SDS011;28110;47.080;9.476;2022-09-09T11:11:54;2.55;;;0.82;;
42478;SDS011;28110;47.080;9.476;2022-09-09T11:14:22;4.05;;;1.20;;
42478;SDS011;28110;47.080;9.476;2022-09-09T11:16:59;0.85;;;0.80;;
42478;SDS011;28110;47.080;9.476;2022-09-09T11:19:35;1.05;;;0.80;;
42478;SDS011;28110;47.080;9.476;2022-09-09T11:24:43;1.55;;;0.85;;
42478;SDS011;28110;47.080;9.476;2022-09-09T11:27:15;1.30;;;0.80;;
42478;SDS011;28110;47.080;9.476;2022-09-09T11:30:04;3.53;;;0.80;;
42478;SDS011;28110;47.080;9.476;2022-09-09T11:40:45;1.75;;;0.82;;
42478;SDS011;28110;47.080;9.476;2022-09-09T11:43:16;3.42;;;0.90;;
42478;SDS011;28110;47.080;9.476;2022-09-09T11:45:50;3.03;;;0.90;;
42478;SDS011;28110;47.080;9.476;2022-09-09T11:48:38;1.43;;;0.80;;
42478;SDS011;28110;47.080;9.476;2022-09-09T11:56:26;1.23;;;0.60;;
42478;SDS011;28110;47.080;9.476;2022-09-09T11:59:16;1.20;;;0.95;;
42478;SDS011;28110;47.080;9.476;2022-09-09T12:01:44;2.30;;;0.80;;
42478;SDS011;28110;47.080;9.476;2022-09-09T12:04:16;2.15;;;0.80;;
42478;SDS011;28110;47.080;9.476;2022-09-09T12:09:46;0.90;;;0.73;;
42478;SDS011;28110;47.080;9.476;2022-09-09T12:14:58;1.57;;;0.67;;
42478;SDS011;28110;47.080;9.476;2022-09-09T12:17:25;1.85;;;0.70;;
42478;SDS011;28110;47.080;9.476;2022-09-09T12:20:04;1.38;;;0.70;;
42478;SDS011;28110;47.080;9.476;2022-09-09T12:22:55;1.35;;;0.82;;
42478;SDS011;28110;47.080;9.476;2022-09-09T12:31:21;2.78;;;0.63;;
42478;SDS011;28110;47.080;9.476;2022-09-09T12:34:10;1.35;;;0.80;;
42478;SDS011;28110;47.080;9.476;2022-09-09T12:36:40;2.42;;;0.80;;
42478;SDS011;28110;47.080;9.476;2022-09-09T12:42:20;3.77;;;0.90;;
42478;SDS011;28110;47.080;9.476;2022-09-09T12:45:14;2.22;;;0.63;;
42478;SDS011;28110;47.080;9.476;2022-09-09T12:47:46;2.05;;;0.65;;
42478;SDS011;28110;47.080;9.476;2022-09-09T12:50:17;1.77;;;0.70;;
42478;SDS011;28110;47.080;9.476;2022-09-09T12:52:51;2.67;;;0.70;;
42478;SDS011;28110;47.080;9.476;2022-09-09T12:55:24;1.30;;;0.57;;
42478;SDS011;28110;47.080;9.476;2022-09-09T12:57:55;0.95;;;0.52;;
42478;SDS011;28110;47.080;9.476;2022-09-09T13:00:23;1.13;;;0.60;;
42478;SDS011;28110;47.080;9.476;2022-09-09T13:02:53;4.40;;;0.93;;
42478;SDS011;28110;47.080;9.476;2022-09-09T13:05:21;2.92;;;0.90;;
42478;SDS011;28110;47.080;9.476;2022-09-09T13:07:52;2.70;;;1.00;;
42478;SDS011;28110;47.080;9.476;2022-09-09T13:10:30;2.35;;;0.80;;
42478;SDS011;28110;47.080;9.476;2022-09-09T13:13:00;2.08;;;0.68;;
42478;SDS011;28110;47.080;9.476;2022-09-09T13:15:27;2.22;;;0.70;;
42478;SDS011;28110;47.080;9.476;2022-09-09T13:17:55;1.30;;;0.80;;
42478;SDS011;28110;47.080;9.476;2022-09-09T13:20:37;5.37;;;0.73;;
42478;SDS011;28110;47.080;9.476;2022-09-09T13:23:02;2.65;;;0.90;;
42478;SDS011;28110;47.080;9.476;2022-09-09T13:25:28;3.60;;;0.77;;
42478;SDS011;28110;47.080;9.476;2022-09-09T13:30:22;1.27;;;0.60;;
42478;SDS011;28110;47.080;9.476;2022-09-09T13:33:00;2.08;;;0.60;;
42478;SDS011;28110;47.080;9.476;2022-09-09T13:35:27;1.23;;;0.53;;
42478;SDS011;28110;47.080;9.476;2022-09-09T13:37:54;6.70;;;0.75;;
42478;SDS011;28110;47.080;9.476;2022-09-09T13:40:20;1.23;;;0.52;;
42478;SDS011;28110;47.080;9.476;2022-09-09T13:42:50;0.88;;;0.60;;
42478;SDS011;28110;47.080;9.476;2022-09-09T13:45:19;2.30;;;0.50;;
42478;SDS011;28110;47.080;9.476;2022-09-09T13:47:47;2.25;;;0.70;;
42478;SDS011;28110;47.080;9.476;2022-09-09T13:50:20;1.00;;;0.68;;
42478;SDS011;28110;47.080;9.476;2022-09-09T13:52:46;1.27;;;0.75;;
42478;SDS011;28110;47.080;9.476;2022-09-09T13:55:14;4.28;;;1.25;;
42478;SDS011;28110;47.080;9.476;2022-09-09T13:57:49;1.87;;;0.77;;
42478;SDS011;28110;47.080;9.476;2022-09-09T14:00:15;0.95;;;0.65;;
42478;SDS011;28110;47.080;9.476;2022-09-09T14:02:41;1.00;;;0.60;;
42478;SDS011;28110;47.080;9.476;2022-09-09T14:05:08;2.90;;;0.52;;
42478;SDS011;28110;47.080;9.476;2022-09-09T14:07:35;2.65;;;0.60;;
42478;SDS011;28110;47.080;9.476;2022-09-09T14:10:03;3.15;;;0.70;;
42478;SDS011;28110;47.080;9.476;2022-09-09T14:12:29;3.00;;;0.70;;
42478;SDS011;28110;47.080;9.476;2022-09-09T14:14:55;1.43;;;0.60;;
42478;SDS011;28110;47.080;9.476;2022-09-09T14:17:20;1.57;;;0.50;;
42478;SDS011;28110;47.080;9.476;2022-09-09T14:19:47;2.35;;;0.63;;
42478;SDS011;28110;47.080;9.476;2022-09-09T14:22:12;1.25;;;0.50;;
42478;SDS011;28110;47.080;9.476;2022-09-09T14:24:38;1.13;;;0.63;;
42478;SDS011;28110;47.080;9.476;2022-09-09T14:27:04;1.77;;;0.55;;
42478;SDS011;28110;47.080;9.476;2022-09-09T14:29:29;1.57;;;0.70;;
42478;SDS011;28110;47.080;9.476;2022-09-09T14:31:55;1.00;;;0.60;;
42478;SDS011;28110;47.080;9.476;2022-09-09T14:34:20;5.37;;;0.70;;
42478;SDS011;28110;47.080;9.476;2022-09-09T14:36:46;3.00;;;0.73;;
42478;SDS011;28110;47.080;9.476;2022-09-09T14:39:12;1.43;;;0.80;;
42478;SDS011;28110;47.080;9.476;2022-09-09T14:41:37;2.73;;;0.60;;
42478;SDS011;28110;47.080;9.476;2022-09-09T14:44:03;2.33;;;0.70;;
42478;SDS011;28110;47.080;9.476;2022-09-09T14:46:28;1.33;;;0.70;;
42478;SDS011;28110;47.080;9.476;2022-09-09T14:48:54;2.05;;;0.70;;
42478;SDS011;28110;47.080;9.476;2022-09-09T14:51:21;2.20;;;0.60;;
42478;SDS011;28110;47.080;9.476;2022-09-09T14:53:50;1.17;;;0.77;;
42478;SDS011;28110;47.080;9.476;2022-09-09T14:56:18;2.67;;;0.70;;
42478;SDS011;28110;47.080;9.476;2022-09-09T14:58:46;0.75;;;0.70;;
42478;SDS011;28110;47.080;9.476;2022-09-09T15:01:14;1.08;;;0.65;;
42478;SDS011;28110;47.080;9.476;2022-09-09T15:03:42;3.20;;;0.83;;
42478;SDS011;28110;47.080;9.476;2022-09-09T15:06:13;1.40;;;0.70;;
42478;SDS011;28110;47.080;9.476;2022-09-09T15:08:43;3.33;;;0.80;;
42478;SDS011;28110;47.080;9.476;2022-09-09T15:11:10;4.97;;;0.73;;
42478;SDS011;28110;47.080;9.476;2022-09-09T15:13:38;0.77;;;0.70;;
42478;SDS011;28110;47.080;9.476;2022-09-09T15:16:05;1.43;;;0.73;;
42478;SDS011;28110;47.080;9.476;2022-09-09T15:18:39;5.60;;;0.85;;
42478;SDS011;28110;47.080;9.476;2022-09-09T15:21:10;3.80;;;0.70;;
42478;SDS011;28110;47.080;9.476;2022-09-09T15:23:40;1.83;;;0.60;;
42478;SDS011;28110;47.080;9.476;2022-09-09T15:26:06;1.50;;;0.60;;
42478;SDS011;28110;47.080;9.476;2022-09-09T15:28:33;3.13;;;0.70;;
42478;SDS011;28110;47.080;9.476;2022-09-09T15:31:06;1.85;;;0.70;;
42478;SDS011;28110;47.080;9.476;2022-09-09T15:33:35;0.80;;;0.52;;
42478;SDS011;28110;47.080;9.476;2022-09-09T15:36:19;4.53;;;0.90;;
42478;SDS011;28110;47.080;9.476;2022-09-09T15:38:47;1.35;;;0.70;;
42478;SDS011;28110;47.080;9.476;2022-09-09T15:41:13;1.80;;;0.73;;
42478;SDS011;28110;47.080;9.476;2022-09-09T15:43:43;3.10;;;0.85;;
42478;SDS011;28110;47.080;9.476;2022-09-09T15:46:23;1.52;;;0.70;;
42478;SDS011;28110;47.080;9.476;2022-09-09T15:48:57;5.30;;;1.17;;
42478;SDS011;28110;47.080;9.476;2022-09-09T15:51:45;2.10;;;0.77;;
42478;SDS011;28110;47.080;9.476;2022-09-09T15:54:13;1.93;;;0.70;;
42478;SDS011;28110;47.080;9.476;2022-09-09T15:56:41;1.50;;;0.60;;
42478;SDS011;28110;47.080;9.476;2022-09-09T15:59:07;2.65;;;0.80;;
42478;SDS011;28110;47.080;9.476;2022-09-09T16:01:33;3.57;;;0.70;;
42478;SDS011;28110;47.080;9.476;2022-09-09T16:03:59;1.42;;;0.70;;
42478;SDS011;28110;47.080;9.476;2022-09-09T16:06:25;3.77;;;0.90;;
42478;SDS011;28110;47.080;9.476;2022-09-09T16:08:53;1.98;;;0.70;;
42478;SDS011;28110;47.080;9.476;2022-09-09T16:11:21;2.10;;;0.80;;
42478;SDS011;28110;47.080;9.476;2022-09-09T16:13:49;2.20;;;0.70;;
42478;SDS011;28110;47.080;9.476;2022-09-09T16:16:16;3.30;;;0.70;;
42478;SDS011;28110;47.080;9.476;2022-09-09T16:18:47;1.80;;;0.70;;
42478;SDS011;28110;47.080;9.476;2022-09-09T16:21:16;2.80;;;0.80;;
42478;SDS011;28110;47.080;9.476;2022-09-09T16:23:50;2.85;;;1.17;;
42478;SDS011;28110;47.080;9.476;2022-09-09T16:26:18;3.40;;;1.08;;
42478;SDS011;28110;47.080;9.476;2022-09-09T16:28:44;1.45;;;0.80;;
42478;SDS011;28110;47.080;9.476;2022-09-09T16:31:15;1.30;;;0.80;;
42478;SDS011;28110;47.080;9.476;2022-09-09T16:33:42;4.03;;;1.08;;
42478;SDS011;28110;47.080;9.476;2022-09-09T16:36:08;4.13;;;0.95;;
42478;SDS011;28110;47.080;9.476;2022-09-09T16:38:37;1.67;;;0.88;;
42478;SDS011;28110;47.080;9.476;2022-09-09T16:41:03;6.53;;;3.27;;
42478;SDS011;28110;47.080;9.476;2022-09-09T16:43:30;5.85;;;1.98;;
42478;SDS011;28110;47.080;9.476;2022-09-09T16:46:00;2.38;;;1.30;;
42478;SDS011;28110;47.080;9.476;2022-09-09T16:48:30;2.65;;;0.98;;
42478;SDS011;28110;47.080;9.476;2022-09-09T16:51:03;4.63;;;0.93;;
42478;SDS011;28110;47.080;9.476;2022-09-09T16:53:31;6.80;;;1.48;;
42478;SDS011;28110;47.080;9.476;2022-09-09T16:55:57;5.57;;;1.30;;
42478;SDS011;28110;47.080;9.476;2022-09-09T16:58:23;3.43;;;1.10;;
42478;SDS011;28110;47.080;9.476;2022-09-09T17:00:49;3.20;;;1.15;;
42478;SDS011;28110;47.080;9.476;2022-09-09T17:03:16;5.18;;;1.67;;
42478;SDS011;28110;47.080;9.476;2022-09-09T17:05:41;2.40;;;1.30;;
42478;SDS011;28110;47.080;9.476;2022-09-09T17:08:07;4.13;;;1.52;;
42478;SDS011;28110;47.080;9.476;2022-09-09T17:10:34;3.55;;;1.30;;
42478;SDS011;28110;47.080;9.476;2022-09-09T17:13:04;6.27;;;1.30;;
42478;SDS011;28110;47.080;9.476;2022-09-09T17:15:30;2.33;;;0.82;;
42478;SDS011;28110;47.080;9.476;2022-09-09T17:17:55;1.73;;;1.10;;
42478;SDS011;28110;47.080;9.476;2022-09-09T17:20:21;2.93;;;1.03;;
42478;SDS011;28110;47.080;9.476;2022-09-09T17:22:46;3.20;;;1.20;;